Terminal Aerodrome Forecast
Issued by NWS Sterling, VA

Current Version | Previous Version | Graphics & Text | Print | Product List | Glossary Off
Versions: 1 2 3 4 5 6 7 8 9 10 11 12 13 14 15 16 17 18 19

413
FTUS41 KLWX 052333
TAFMRB
TAF
KMRB 052333Z 0600/0624 30004KT P6SM SCT250
     FM061400 20004KT P6SM SCT200
     FM061800 20007KT P6SM BKN050
     FM062300 20005KT P6SM SCT200=

USA.gov is the U.S. government's official web portal to all federal, state and local government web resources and services.